createdAt,value
2019-03-21T00:01:39.796Z,0.50
2019-03-21T00:06:25.980Z,0.40
2019-03-21T00:11:37.342Z,0.30
2019-03-21T00:16:24.202Z,0.20
2019-03-21T00:21:10.459Z,0.30
2019-03-21T00:25:56.876Z,0.00
2019-03-21T00:30:43.235Z,0.00
2019-03-21T00:35:29.713Z,-0.10
2019-03-21T00:40:18.615Z,0.00
2019-03-21T00:45:05.130Z,0.10
2019-03-21T00:49:51.525Z,0.00
2019-03-21T00:54:37.758Z,-0.20
2019-03-21T00:59:24.081Z,-0.20
2019-03-21T01:04:10.274Z,-0.20
2019-03-21T01:08:56.603Z,-0.50
2019-03-21T01:13:42.859Z,-0.60
2019-03-21T01:18:29.291Z,-0.60
2019-03-21T01:23:15.536Z,-0.20
2019-03-21T01:28:01.813Z,-0.10
2019-03-21T01:32:48.156Z,0.00
2019-03-21T01:37:34.569Z,-0.10
2019-03-21T01:42:20.866Z,-0.50
2019-03-21T01:47:07.251Z,-0.60
2019-03-21T01:51:53.628Z,-0.60
2019-03-21T01:56:40.167Z,-0.20
2019-03-21T02:01:26.374Z,-0.10
2019-03-21T02:06:12.729Z,-0.30
2019-03-21T02:10:58.937Z,-0.40
2019-03-21T02:15:46.501Z,-0.50
2019-03-21T02:20:32.932Z,-0.30
2019-03-21T02:25:24.528Z,-0.40
2019-03-21T02:30:13.893Z,-0.40
2019-03-21T02:35:00.418Z,-0.60
2019-03-21T02:39:58.783Z,-0.70
2019-03-21T02:44:35.147Z,-0.70
2019-03-21T02:49:21.340Z,-0.50
2019-03-21T02:54:07.576Z,-0.60
2019-03-21T02:58:53.814Z,-0.80
2019-03-21T03:03:40.028Z,-1.00
2019-03-21T03:08:26.274Z,-1.00
2019-03-21T03:13:12.575Z,-0.90
2019-03-21T03:17:58.898Z,-1.10
2019-03-21T03:22:45.255Z,-1.30
2019-03-21T03:27:31.508Z,-1.10
2019-03-21T03:32:17.734Z,-1.10
2019-03-21T03:37:03.931Z,-1.30
2019-03-21T03:41:50.292Z,-1.50
2019-03-21T03:46:36.514Z,-1.50
2019-03-21T03:51:22.750Z,-1.50
2019-03-21T03:56:09.107Z,-1.30
2019-03-21T04:00:55.624Z,-1.40
2019-03-21T04:05:41.987Z,-1.30
2019-03-21T04:10:30.987Z,-1.40
2019-03-21T04:15:17.252Z,-1.60
2019-03-21T04:20:03.491Z,-1.70
2019-03-21T04:24:49.698Z,-1.90
2019-03-21T04:29:35.959Z,-2.10
2019-03-21T04:34:22.156Z,-1.70
2019-03-21T04:39:09.955Z,-1.90
2019-03-21T04:43:56.214Z,-2.00
2019-03-21T04:48:42.464Z,-1.90
2019-03-21T04:53:28.742Z,-2.00
2019-03-21T04:58:14.990Z,-2.00
2019-03-21T05:03:02.259Z,-1.70
2019-03-21T05:07:48.587Z,-1.70
2019-03-21T05:12:34.843Z,-1.70
2019-03-21T05:17:21.731Z,-1.90
2019-03-21T05:22:08.002Z,-2.00
2019-03-21T05:26:54.263Z,-2.20
2019-03-21T05:31:41.030Z,-2.20
2019-03-21T05:36:27.608Z,-2.40
2019-03-21T05:41:13.909Z,-2.50
2019-03-21T05:46:00.205Z,-2.40
2019-03-21T05:50:46.561Z,-2.30
2019-03-21T05:55:32.802Z,-2.40
2019-03-21T06:00:23.123Z,-2.30
2019-03-21T06:05:09.503Z,-2.00
2019-03-21T06:09:55.727Z,-2.00
2019-03-21T06:14:45.620Z,-1.80
2019-03-21T06:19:48.889Z,-1.80
2019-03-21T06:25:04.798Z,-1.80
2019-03-21T06:29:51.103Z,-1.70
2019-03-21T06:34:37.602Z,-1.50
2019-03-21T06:39:23.993Z,-1.30
2019-03-21T06:44:10.271Z,-1.40
2019-03-21T06:48:56.592Z,-1.50
2019-03-21T06:53:42.905Z,-1.30
2019-03-21T06:58:29.111Z,-1.30
2019-03-21T07:03:16.541Z,-0.80
2019-03-21T07:08:02.947Z,-0.10
2019-03-21T07:12:49.277Z,0.70
2019-03-21T07:17:35.550Z,1.30
2019-03-21T07:22:21.829Z,2.00
2019-03-21T07:27:08.260Z,2.60
2019-03-21T07:31:54.662Z,3.20
2019-03-21T07:36:41.258Z,3.70
2019-03-21T07:41:27.969Z,4.30
2019-03-21T07:46:14.335Z,4.70
2019-03-21T07:51:19.466Z,5.20
2019-03-21T07:56:06.117Z,5.50
2019-03-21T08:00:52.471Z,6.00
2019-03-21T08:05:40.583Z,6.40
2019-03-21T08:10:26.766Z,6.90
2019-03-21T08:15:13.794Z,7.20
2019-03-21T08:20:00.331Z,7.50
2019-03-21T08:24:46.845Z,7.90
2019-03-21T08:29:33.099Z,8.50
2019-03-21T08:34:19.620Z,9.10
2019-03-21T08:39:08.632Z,9.10
2019-03-21T08:43:54.924Z,9.70
2019-03-21T08:48:41.318Z,10.10
2019-03-21T08:53:27.897Z,10.60
2019-03-21T08:58:14.969Z,11.20
2019-03-21T09:03:01.279Z,11.90
2019-03-21T09:07:47.748Z,11.90
2019-03-21T09:12:34.096Z,12.70
2019-03-21T09:17:20.483Z,12.10
2019-03-21T09:22:07.307Z,12.80
2019-03-21T09:26:53.903Z,13.10
2019-03-21T09:31:40.409Z,13.40
2019-03-21T09:36:26.715Z,13.20
2019-03-21T09:41:13.213Z,14.10
2019-03-21T09:45:59.591Z,14.20
2019-03-21T09:50:45.904Z,14.60
2019-03-21T09:55:32.445Z,14.90
2019-03-21T10:00:28.803Z,15.40
2019-03-21T10:05:15.353Z,15.80
2019-03-21T10:10:01.893Z,15.60
2019-03-21T10:14:48.368Z,15.90
2019-03-21T10:19:34.869Z,16.40
2019-03-21T10:24:21.201Z,17.60
2019-03-21T10:29:07.748Z,17.50
2019-03-21T10:33:54.004Z,17.50
2019-03-21T10:38:40.333Z,18.10
2019-03-21T10:43:26.580Z,17.40
2019-03-21T10:48:12.924Z,18.60
2019-03-21T10:52:59.764Z,18.50
2019-03-21T10:57:45.985Z,19.80
2019-03-21T11:02:32.533Z,20.00
2019-03-21T11:07:16.318Z,19.10
2019-03-21T11:12:02.646Z,20.30
2019-03-21T11:16:49.045Z,21.00
2019-03-21T11:21:35.510Z,20.50
2019-03-21T11:26:22.006Z,21.80
2019-03-21T11:31:08.700Z,21.40
2019-03-21T11:35:55.130Z,19.40
2019-03-21T11:40:41.592Z,20.70
2019-03-21T11:45:28.220Z,21.60
2019-03-21T11:50:14.581Z,21.50
2019-03-21T11:55:00.925Z,22.00
2019-03-21T11:59:51.933Z,22.80
2019-03-21T12:04:35.351Z,21.00
2019-03-21T12:09:22.044Z,22.10
2019-03-21T12:14:08.461Z,23.60
2019-03-21T12:18:55.292Z,23.90
2019-03-21T12:23:41.511Z,24.80
2019-03-21T12:28:28.143Z,23.50
2019-03-21T12:33:14.500Z,24.10
2019-03-21T12:38:00.851Z,25.60
2019-03-21T12:42:47.312Z,24.40
2019-03-21T12:47:34.355Z,24.60
2019-03-21T12:52:20.711Z,26.10
2019-03-21T12:57:07.193Z,25.80
2019-03-21T13:01:53.603Z,26.00
2019-03-21T13:06:39.819Z,25.40
2019-03-21T13:11:26.299Z,25.00
2019-03-21T13:16:12.940Z,26.30
2019-03-21T13:20:59.376Z,26.90
2019-03-21T13:25:46.415Z,27.20
2019-03-21T13:30:33.106Z,29.20
2019-03-21T13:35:19.454Z,29.30
2019-03-21T13:40:06.949Z,28.00
2019-03-21T13:44:53.479Z,27.60
2019-03-21T13:49:39.785Z,26.40
2019-03-21T13:54:26.783Z,26.40
2019-03-21T13:59:15.862Z,28.60
2019-03-21T14:04:02.520Z,29.30
2019-03-21T14:08:49.184Z,29.40
2019-03-21T14:13:35.572Z,30.60
2019-03-21T14:18:22.272Z,31.50
2019-03-21T14:23:17.088Z,30.90
2019-03-21T14:27:58.564Z,29.70
2019-03-21T14:32:45.160Z,30.20
2019-03-21T14:37:31.557Z,30.50
2019-03-21T14:42:18.048Z,31.50
2019-03-21T14:47:04.305Z,28.40
2019-03-21T14:51:51.922Z,30.90
2019-03-21T14:56:38.258Z,31.70
2019-03-21T15:01:24.957Z,29.60
2019-03-21T15:06:11.252Z,29.40
2019-03-21T15:10:57.571Z,31.10
2019-03-21T15:15:43.906Z,31.60
2019-03-21T15:20:30.484Z,31.70
2019-03-21T15:25:17.035Z,30.80
2019-03-21T15:30:03.478Z,30.60
2019-03-21T15:34:49.974Z,31.10
2019-03-21T15:39:36.203Z,31.00
2019-03-21T15:44:22.551Z,31.30
2019-03-21T15:49:08.941Z,30.40
2019-03-21T15:53:56.735Z,30.80
2019-03-21T15:58:43.289Z,30.10
2019-03-21T16:03:29.800Z,29.70
2019-03-21T16:08:16.327Z,28.90
2019-03-21T16:13:02.783Z,28.60
2019-03-21T16:17:49.238Z,28.20
2019-03-21T16:22:35.570Z,27.70
2019-03-21T16:27:21.797Z,28.10
2019-03-21T16:32:08.532Z,28.10
2019-03-21T16:36:55.246Z,27.10
2019-03-21T16:41:41.614Z,26.40
2019-03-21T16:46:28.675Z,25.20
2019-03-21T16:51:15.385Z,23.60
2019-03-21T16:56:01.913Z,20.50
2019-03-21T17:00:48.340Z,17.50
2019-03-21T17:05:34.808Z,16.20
2019-03-21T17:10:21.187Z,15.10
2019-03-21T17:15:07.934Z,14.40
2019-03-21T17:19:54.352Z,13.80
2019-03-21T17:24:41.219Z,13.30
2019-03-21T17:29:28.057Z,12.60
2019-03-21T17:34:14.680Z,12.10
2019-03-21T17:39:01.255Z,11.70
2019-03-21T17:43:47.552Z,11.30
2019-03-21T17:48:34.235Z,10.90
2019-03-21T17:53:20.811Z,10.70
2019-03-21T17:58:07.152Z,10.20
2019-03-21T18:02:53.735Z,10.00
2019-03-21T18:07:40.338Z,9.80
2019-03-21T18:12:26.769Z,9.50
2019-03-21T18:17:13.507Z,9.30
2019-03-21T18:21:59.990Z,9.20
2019-03-21T18:26:46.487Z,9.00
2019-03-21T18:31:33.082Z,8.60
2019-03-21T18:36:22.344Z,8.40
2019-03-21T18:41:08.711Z,8.20
2019-03-21T18:45:55.135Z,8.20
2019-03-21T18:50:41.472Z,8.10
2019-03-21T18:55:27.834Z,8.10
2019-03-21T19:00:15.002Z,7.90
2019-03-21T19:05:01.420Z,7.70
2019-03-21T19:09:47.726Z,7.50
2019-03-21T19:14:34.271Z,7.50
2019-03-21T19:19:20.595Z,7.30
2019-03-21T19:24:06.854Z,7.10
2019-03-21T19:28:53.438Z,7.10
2019-03-21T19:33:39.853Z,6.90
2019-03-21T19:38:26.339Z,6.70
2019-03-21T19:43:12.819Z,6.60
2019-03-21T19:47:59.276Z,6.50
2019-03-21T19:52:45.904Z,6.40
2019-03-21T19:57:32.314Z,6.00
2019-03-21T20:02:19.390Z,6.10
2019-03-21T20:07:13.047Z,5.90
2019-03-21T20:12:02.691Z,5.90
2019-03-21T20:16:49.876Z,5.70
2019-03-21T20:21:47.312Z,5.80
2019-03-21T20:26:26.223Z,5.90
2019-03-21T20:31:12.693Z,6.40
2019-03-21T20:35:59.071Z,6.80
2019-03-21T20:40:45.643Z,6.10
2019-03-21T20:45:32.388Z,5.60
2019-03-21T20:50:19.477Z,5.60
2019-03-21T20:55:06.889Z,5.40
2019-03-21T20:59:53.536Z,5.10
2019-03-21T21:04:40.163Z,5.20
2019-03-21T21:09:26.968Z,5.00
2019-03-21T21:14:13.769Z,4.80
2019-03-21T21:19:00.258Z,4.70
2019-03-21T21:23:46.757Z,4.70
2019-03-21T21:28:33.102Z,4.60
2019-03-21T21:33:19.726Z,4.70
2019-03-21T21:38:06.298Z,4.70
2019-03-21T21:42:52.830Z,4.40
2019-03-21T21:47:39.398Z,4.30
2019-03-21T21:52:25.857Z,4.10
2019-03-21T21:57:12.412Z,3.80
2019-03-21T22:01:58.909Z,3.70
2019-03-21T22:06:46.529Z,3.90
2019-03-21T22:11:32.946Z,3.80
2019-03-21T22:16:19.372Z,3.70
2019-03-21T22:21:05.950Z,3.60
2019-03-21T22:25:52.537Z,3.40
2019-03-21T22:30:39.200Z,3.10
2019-03-21T22:35:25.718Z,3.10
2019-03-21T22:40:12.211Z,3.10
2019-03-21T22:44:58.626Z,3.10
2019-03-21T22:49:44.925Z,3.20
2019-03-21T22:54:31.240Z,3.10
2019-03-21T22:59:17.718Z,3.10
2019-03-21T23:04:04.168Z,2.90
2019-03-21T23:08:50.649Z,2.90
2019-03-21T23:13:37.078Z,2.80
2019-03-21T23:18:23.390Z,2.50
2019-03-21T23:23:09.645Z,2.60
2019-03-21T23:27:56.001Z,2.60
2019-03-21T23:32:42.281Z,2.70
2019-03-21T23:37:28.624Z,2.50
2019-03-21T23:42:14.893Z,2.30
2019-03-21T23:47:01.224Z,2.20
2019-03-21T23:51:47.567Z,2.20
2019-03-21T23:56:33.978Z,1.90
